createdAt,value
2023-01-17T00:00:43.056Z,97398.40
2023-01-17T00:02:16.991Z,97391.00
2023-01-17T00:04:07.164Z,97404.00
2023-01-17T00:05:59.508Z,97394.40
2023-01-17T00:07:50.750Z,97400.00
2023-01-17T00:09:41.090Z,97400.00
2023-01-17T00:11:12.850Z,97402.20
2023-01-17T00:12:54.086Z,97396.00
2023-01-17T00:14:27.241Z,97397.60
2023-01-17T00:15:59.070Z,97397.00
2023-01-17T00:17:30.921Z,97398.60
2023-01-17T00:19:21.420Z,97396.80
2023-01-17T00:21:12.205Z,97399.40
2023-01-17T00:23:02.861Z,97399.00
2023-01-17T00:24:53.170Z,97400.40
2023-01-17T00:26:24.971Z,97402.20
2023-01-17T00:27:56.827Z,97399.80
2023-01-17T00:29:28.550Z,97401.20
2023-01-17T00:31:00.679Z,97397.80
2023-01-17T00:32:32.394Z,97402.60
2023-01-17T00:34:04.096Z,97407.20
2023-01-17T00:35:35.833Z,97409.40
2023-01-17T00:37:07.509Z,97416.60
2023-01-17T00:38:40.708Z,97408.20
2023-01-17T00:40:12.741Z,97409.00
2023-01-17T00:41:44.404Z,97409.20
2023-01-17T00:43:41.235Z,97413.40
2023-01-17T00:45:31.505Z,97417.80
2023-01-17T00:47:21.782Z,97421.20
2023-01-17T00:49:11.931Z,97430.80
2023-01-17T00:51:02.311Z,97429.20
2023-01-17T00:52:52.357Z,97434.00
2023-01-17T00:54:42.678Z,97437.00
2023-01-17T00:56:33.191Z,97443.00
2023-01-17T00:58:27.930Z,97441.20
2023-01-17T01:00:18.325Z,97451.20
2023-01-17T01:02:08.837Z,97450.60
2023-01-17T01:03:59.353Z,97455.00
2023-01-17T01:05:51.204Z,97450.20
2023-01-17T01:07:41.477Z,97455.40
2023-01-17T01:09:31.530Z,97462.80
2023-01-17T01:11:31.677Z,97462.80
2023-01-17T01:13:22.085Z,97469.80
2023-01-17T01:15:12.634Z,97478.00
2023-01-17T01:17:03.257Z,97483.00
2023-01-17T01:18:53.491Z,97480.20
2023-01-17T01:20:44.000Z,97484.60
2023-01-17T01:22:34.536Z,97488.00
2023-01-17T01:24:25.303Z,97495.20
2023-01-17T01:26:15.530Z,97496.80
2023-01-17T01:28:05.755Z,97511.80
2023-01-17T01:29:56.184Z,97515.20
2023-01-17T01:31:46.717Z,97519.60
2023-01-17T01:33:21.509Z,97515.60
2023-01-17T01:34:53.251Z,97525.00
2023-01-17T01:36:24.924Z,97527.80
2023-01-17T01:37:56.755Z,97526.40
2023-01-17T01:39:28.537Z,97535.00
2023-01-17T01:41:00.408Z,97539.80
2023-01-17T01:42:32.156Z,97540.20
2023-01-17T01:44:04.432Z,97546.40
2023-01-17T01:45:36.690Z,97541.00
2023-01-17T01:47:13.061Z,97555.20
2023-01-17T01:49:02.582Z,97552.80
2023-01-17T01:50:37.455Z,97552.20
2023-01-17T01:52:11.598Z,97560.00
2023-01-17T01:53:47.947Z,97562.00
2023-01-17T01:55:28.052Z,97569.60
2023-01-17T01:57:04.780Z,97572.80
2023-01-17T01:58:37.890Z,97574.60
2023-01-17T02:00:17.587Z,97579.60
2023-01-17T02:01:53.131Z,97577.60
2023-01-17T02:03:31.888Z,97579.60
2023-01-17T02:05:04.900Z,97584.20
2023-01-17T02:06:49.194Z,97587.80
2023-01-17T02:08:24.166Z,97585.40
2023-01-17T02:09:55.917Z,97595.80
2023-01-17T02:11:28.112Z,97602.60
2023-01-17T02:13:01.228Z,97624.20
2023-01-17T02:14:33.188Z,97609.20
2023-01-17T02:16:48.287Z,97616.80
2023-01-17T02:18:28.929Z,97622.60
2023-01-17T02:20:49.094Z,97620.20
2023-01-17T02:22:44.787Z,97623.60
2023-01-17T02:25:00.129Z,97623.60
2023-01-17T02:26:56.187Z,97634.60
2023-01-17T02:28:45.924Z,97635.40
2023-01-17T02:30:37.217Z,97630.80
2023-01-17T02:32:37.135Z,97628.80
2023-01-17T02:34:43.590Z,97639.80
2023-01-17T02:36:25.286Z,97636.40
2023-01-17T02:38:37.774Z,97638.00
2023-01-17T02:40:38.951Z,97648.20
2023-01-17T02:42:17.881Z,97640.00
2023-01-17T02:43:52.382Z,97651.20
2023-01-17T02:45:24.134Z,97646.40
2023-01-17T02:46:59.279Z,97656.40
2023-01-17T02:48:34.555Z,97663.20
2023-01-17T02:50:13.707Z,97666.40
2023-01-17T02:52:22.441Z,97663.40
2023-01-17T02:54:19.052Z,97673.20
2023-01-17T02:56:00.351Z,97680.40
2023-01-17T02:58:27.392Z,97682.60
2023-01-17T03:00:39.219Z,97683.60
2023-01-17T03:02:29.537Z,97686.20
2023-01-17T03:04:15.123Z,97690.60
2023-01-17T03:06:13.691Z,97692.80
2023-01-17T03:07:48.292Z,97698.40
2023-01-17T03:09:21.553Z,97703.40
2023-01-17T03:10:53.943Z,97705.00
2023-01-17T03:12:32.288Z,97710.80
2023-01-17T03:14:04.012Z,97709.00
2023-01-17T03:15:35.928Z,97711.00
2023-01-17T03:17:08.408Z,97717.00
2023-01-17T03:18:40.258Z,97719.40
2023-01-17T03:20:12.945Z,97726.20
2023-01-17T03:21:44.661Z,97735.20
2023-01-17T03:23:16.498Z,97736.00
2023-01-17T03:24:48.268Z,97742.60
2023-01-17T03:26:20.095Z,97745.40
2023-01-17T03:27:51.847Z,97740.20
2023-01-17T03:29:23.558Z,97745.40
2023-01-17T03:30:55.472Z,97743.40
2023-01-17T03:32:27.877Z,97745.20
2023-01-17T03:33:59.589Z,97750.40
2023-01-17T03:35:34.047Z,97759.40
2023-01-17T03:37:05.887Z,97756.00
2023-01-17T03:38:37.964Z,97757.00
2023-01-17T03:40:10.418Z,97759.60
2023-01-17T03:41:42.103Z,97755.20
2023-01-17T03:43:16.182Z,97760.60
2023-01-17T03:44:47.862Z,97758.40
2023-01-17T03:46:25.848Z,97751.80
2023-01-17T03:47:57.908Z,97753.00
2023-01-17T03:49:29.667Z,97757.20
2023-01-17T03:51:01.549Z,97754.40
2023-01-17T03:52:33.332Z,97756.80
2023-01-17T03:54:05.156Z,97756.60
2023-01-17T03:55:37.074Z,97765.60
2023-01-17T03:57:09.207Z,97761.60
2023-01-17T03:58:41.064Z,97767.80
2023-01-17T04:00:13.661Z,97770.00
2023-01-17T04:01:45.542Z,97775.80
2023-01-17T04:03:17.377Z,97779.20
2023-01-17T04:04:49.229Z,97784.00
2023-01-17T04:06:21.308Z,97785.80
2023-01-17T04:07:53.109Z,97788.20
2023-01-17T04:09:24.867Z,97792.40
2023-01-17T04:10:57.224Z,97796.40
2023-01-17T04:12:28.913Z,97797.00
2023-01-17T04:14:00.621Z,97801.20
2023-01-17T04:15:33.504Z,97794.80
2023-01-17T04:17:05.364Z,97800.40
2023-01-17T04:18:37.329Z,97805.20
2023-01-17T04:20:38.250Z,97802.00
2023-01-17T04:22:10.310Z,97795.40
2023-01-17T04:23:42.066Z,97801.00
2023-01-17T04:25:13.894Z,97800.40
2023-01-17T04:26:45.708Z,97795.20
2023-01-17T04:28:17.555Z,97802.60
2023-01-17T04:29:49.523Z,97801.20
2023-01-17T04:31:21.321Z,97798.60
2023-01-17T04:32:53.537Z,97797.00
2023-01-17T04:34:25.259Z,97803.00
2023-01-17T04:35:57.123Z,97803.00
2023-01-17T04:37:28.834Z,97807.20
2023-01-17T04:39:00.631Z,97805.20
2023-01-17T04:40:32.382Z,97807.40
2023-01-17T04:42:04.259Z,97814.80
2023-01-17T04:43:36.119Z,97817.80
2023-01-17T04:45:08.734Z,97816.40
2023-01-17T04:46:40.524Z,97816.00
2023-01-17T04:48:12.912Z,97813.60
2023-01-17T04:49:44.587Z,97817.80
2023-01-17T04:51:16.415Z,97821.60
2023-01-17T04:52:48.116Z,97815.80
2023-01-17T04:54:19.955Z,97817.60
2023-01-17T04:55:51.673Z,97822.00
2023-01-17T04:57:25.078Z,97821.40
2023-01-17T04:58:58.387Z,97822.60
2023-01-17T05:00:30.280Z,97827.00
2023-01-17T05:02:02.152Z,97829.20
2023-01-17T05:03:34.996Z,97823.60
2023-01-17T05:05:07.807Z,97829.40
2023-01-17T05:06:39.546Z,97832.60
2023-01-17T05:08:11.658Z,97830.40
2023-01-17T05:09:43.898Z,97833.00
2023-01-17T05:11:15.752Z,97831.00
2023-01-17T05:13:13.978Z,97836.20
2023-01-17T05:14:45.712Z,97832.20
2023-01-17T05:16:19.531Z,97837.40
2023-01-17T05:17:53.940Z,97841.60
2023-01-17T05:19:27.059Z,97839.40
2023-01-17T05:21:06.305Z,97843.80
2023-01-17T05:22:38.238Z,97839.00
2023-01-17T05:24:09.973Z,97840.20
2023-01-17T05:25:44.935Z,97847.00
2023-01-17T05:27:16.723Z,97843.60
2023-01-17T05:28:48.491Z,97845.40
2023-01-17T05:30:22.345Z,97848.80
2023-01-17T05:31:54.067Z,97851.20
2023-01-17T05:33:27.043Z,97856.80
2023-01-17T05:34:59.161Z,97860.60
2023-01-17T05:36:31.048Z,97854.40
2023-01-17T05:38:03.025Z,97856.60
2023-01-17T05:39:34.775Z,97856.60
2023-01-17T05:41:06.521Z,97853.80
2023-01-17T05:42:38.316Z,97857.40
2023-01-17T05:44:10.405Z,97867.20
2023-01-17T05:45:42.200Z,97862.20
2023-01-17T05:47:16.107Z,97861.60
2023-01-17T05:48:48.153Z,97862.40
2023-01-17T05:50:27.804Z,97863.80
2023-01-17T05:51:59.587Z,97854.40
2023-01-17T05:53:32.975Z,97858.20
2023-01-17T05:55:07.419Z,97862.00
2023-01-17T05:56:39.155Z,97868.80
2023-01-17T05:58:17.613Z,97872.40
2023-01-17T05:59:49.323Z,97877.60
2023-01-17T06:01:21.054Z,97876.80
2023-01-17T06:02:54.988Z,97875.60
2023-01-17T06:04:26.839Z,97880.00
2023-01-17T06:05:58.629Z,97874.20
2023-01-17T06:07:30.434Z,97874.20
2023-01-17T06:09:02.946Z,97873.80
2023-01-17T06:10:35.135Z,97884.40
2023-01-17T06:12:07.035Z,97886.80
2023-01-17T06:13:39.317Z,97893.80
2023-01-17T06:15:14.307Z,97892.80
2023-01-17T06:16:47.751Z,97891.60
2023-01-17T06:18:19.575Z,97899.20
2023-01-17T06:19:51.325Z,97899.80
2023-01-17T06:21:23.047Z,97902.40
2023-01-17T06:22:55.318Z,97905.40
2023-01-17T06:24:27.683Z,97906.00
2023-01-17T06:26:04.473Z,97911.00
2023-01-17T06:27:37.531Z,97916.40
2023-01-17T06:29:11.636Z,97915.60
2023-01-17T06:30:44.039Z,97918.80
2023-01-17T06:32:17.121Z,97923.20
2023-01-17T06:33:48.868Z,97920.40
2023-01-17T06:35:22.351Z,97923.00
2023-01-17T06:36:54.463Z,97926.40
2023-01-17T06:38:28.703Z,97926.20
2023-01-17T06:40:00.541Z,97926.20
2023-01-17T06:41:32.433Z,97927.00
2023-01-17T06:43:05.250Z,97930.00
2023-01-17T06:44:37.069Z,97933.60
2023-01-17T06:46:08.802Z,97931.40
2023-01-17T06:47:41.756Z,97938.40
2023-01-17T06:49:14.347Z,97933.40
2023-01-17T06:50:48.262Z,97939.40
2023-01-17T06:52:20.050Z,97941.20
2023-01-17T06:53:51.739Z,97945.20
2023-01-17T06:55:24.626Z,97939.00
2023-01-17T06:56:56.470Z,97943.40
2023-01-17T06:58:28.251Z,97945.20
2023-01-17T07:00:00.055Z,97944.80
2023-01-17T07:01:32.093Z,97948.00
2023-01-17T07:03:04.197Z,97946.40
2023-01-17T07:04:35.935Z,97948.00
2023-01-17T07:06:09.561Z,97950.40
2023-01-17T07:07:41.262Z,97952.20
2023-01-17T07:09:13.078Z,97957.00
2023-01-17T07:10:46.722Z,97953.00
2023-01-17T07:12:18.672Z,97959.80
2023-01-17T07:13:50.504Z,97962.00
2023-01-17T07:15:22.247Z,97962.40
2023-01-17T07:16:55.082Z,97961.40
2023-01-17T07:18:27.460Z,97967.20
2023-01-17T07:19:59.204Z,97968.80
2023-01-17T07:21:30.956Z,97972.60
2023-01-17T07:23:02.781Z,97971.60
2023-01-17T07:24:36.396Z,97974.40
2023-01-17T07:26:08.779Z,97975.00
2023-01-17T07:27:40.596Z,97975.60
2023-01-17T07:29:12.363Z,97967.60
2023-01-17T07:30:44.136Z,97968.40
2023-01-17T07:32:15.859Z,97968.80
2023-01-17T07:33:47.625Z,97966.60
2023-01-17T07:35:20.905Z,97972.00
2023-01-17T07:36:54.463Z,97969.80
2023-01-17T07:38:26.196Z,97966.80
2023-01-17T07:39:58.051Z,97969.60
2023-01-17T07:41:34.602Z,97970.60
2023-01-17T07:43:13.520Z,97967.40
2023-01-17T07:44:45.520Z,97969.40
2023-01-17T07:46:17.486Z,97964.80
2023-01-17T07:47:50.108Z,97964.60
2023-01-17T07:49:21.801Z,97968.40
2023-01-17T07:50:56.565Z,97962.60
2023-01-17T07:52:28.597Z,97968.60
2023-01-17T07:54:00.384Z,97960.20
2023-01-17T07:55:32.404Z,97965.80
2023-01-17T07:57:04.240Z,97969.20
2023-01-17T07:58:36.591Z,97969.40
2023-01-17T08:00:09.508Z,97968.00
2023-01-17T08:01:50.021Z,97970.60
2023-01-17T08:03:21.804Z,97968.20
2023-01-17T08:04:53.575Z,97964.80
2023-01-17T08:06:26.074Z,97962.80
2023-01-17T08:07:57.851Z,97960.00
2023-01-17T08:09:29.692Z,97961.80
2023-01-17T08:11:01.439Z,97958.00
2023-01-17T08:12:34.083Z,97957.20
2023-01-17T08:14:06.316Z,97951.40
2023-01-17T08:15:38.066Z,97952.80
2023-01-17T08:17:15.064Z,97947.60
2023-01-17T08:18:46.794Z,97945.40
2023-01-17T08:20:19.875Z,97963.20
2023-01-17T08:21:51.589Z,97965.00
2023-01-17T08:23:23.665Z,97962.80
2023-01-17T08:24:55.399Z,97967.00
2023-01-17T08:26:27.528Z,97966.40
2023-01-17T08:27:59.205Z,97965.60
2023-01-17T08:29:31.039Z,97966.40
2023-01-17T08:31:10.125Z,97964.20
2023-01-17T08:32:41.965Z,97973.00
2023-01-17T08:34:14.483Z,97973.20
2023-01-17T08:35:53.630Z,97979.40
2023-01-17T08:37:25.388Z,97973.40
2023-01-17T08:38:57.602Z,97973.60
2023-01-17T08:40:29.450Z,97975.20
2023-01-17T08:42:01.993Z,97976.20
2023-01-17T08:44:43.595Z,97978.80
2023-01-17T08:46:15.928Z,97972.00
2023-01-17T08:47:49.809Z,97967.20
2023-01-17T08:49:22.298Z,97970.60
2023-01-17T08:50:54.622Z,97974.80
2023-01-17T08:52:29.090Z,97976.80
2023-01-17T08:54:01.352Z,97978.20
2023-01-17T08:55:34.441Z,97971.80
2023-01-17T08:57:08.325Z,97977.80
2023-01-17T08:58:41.798Z,97984.40
2023-01-17T09:00:14.998Z,97981.60
2023-01-17T09:01:47.294Z,97987.40
2023-01-17T09:03:20.494Z,97986.60
2023-01-17T09:04:52.513Z,97992.40
2023-01-17T09:06:24.624Z,97991.60
2023-01-17T09:07:57.257Z,97990.40
2023-01-17T09:09:36.084Z,97995.60
2023-01-17T09:11:14.658Z,97993.40
2023-01-17T09:12:46.882Z,97995.60
2023-01-17T09:14:19.754Z,98000.40
2023-01-17T09:15:58.977Z,97998.60
2023-01-17T09:17:34.908Z,98002.20
2023-01-17T09:19:07.523Z,98004.80
2023-01-17T09:20:41.339Z,98003.60
2023-01-17T09:22:13.324Z,98003.60
2023-01-17T09:23:46.733Z,98003.40
2023-01-17T09:25:20.805Z,98010.20
2023-01-17T09:26:53.761Z,98013.60
2023-01-17T09:28:28.682Z,98006.20
2023-01-17T09:30:02.664Z,98002.00
2023-01-17T09:31:35.143Z,98010.80
2023-01-17T09:33:08.765Z,98011.00
2023-01-17T09:34:41.857Z,98005.80
2023-01-17T09:36:15.316Z,98003.60
2023-01-17T09:37:57.196Z,98007.00
2023-01-17T09:39:29.944Z,98003.20
2023-01-17T09:41:13.409Z,98009.20
2023-01-17T09:42:46.372Z,98018.60
2023-01-17T09:44:38.943Z,98010.20
2023-01-17T09:46:25.463Z,98013.80
2023-01-17T09:48:00.141Z,98009.00
2023-01-17T09:49:47.373Z,98010.60
2023-01-17T09:51:24.579Z,98008.40
2023-01-17T09:53:06.225Z,98004.60
2023-01-17T09:54:43.084Z,98007.00
2023-01-17T09:56:23.248Z,98008.40
2023-01-17T09:58:17.928Z,98008.80
2023-01-17T10:00:04.152Z,98010.60
2023-01-17T10:01:48.974Z,98014.40
2023-01-17T10:04:03.423Z,98014.20
2023-01-17T10:06:15.200Z,98015.60
2023-01-17T10:08:08.237Z,98017.80
2023-01-17T10:10:04.732Z,98028.00
2023-01-17T10:12:06.962Z,98020.20
2023-01-17T10:14:25.803Z,98021.40
2023-01-17T10:16:30.747Z,98019.60
2023-01-17T10:18:34.643Z,98029.20
2023-01-17T10:20:40.280Z,98021.40
2023-01-17T10:23:06.854Z,98015.00
2023-01-17T10:24:57.315Z,98018.80
2023-01-17T10:26:30.150Z,98017.20
2023-01-17T10:28:34.820Z,98020.80
2023-01-17T10:30:33.608Z,98027.40
2023-01-17T10:32:06.157Z,98025.20
2023-01-17T10:33:48.470Z,98032.00
2023-01-17T10:35:26.981Z,98029.80
2023-01-17T10:37:16.412Z,98029.40
2023-01-17T10:38:57.607Z,98030.60
2023-01-17T10:40:55.020Z,98029.40
2023-01-17T10:42:47.497Z,98024.00
2023-01-17T10:44:35.355Z,98026.60
2023-01-17T10:46:17.282Z,98025.20
2023-01-17T10:48:09.500Z,98029.40
2023-01-17T10:50:05.131Z,98034.40
2023-01-17T10:52:01.389Z,98029.60
2023-01-17T10:53:44.895Z,98027.60
2023-01-17T10:55:40.069Z,98024.80
2023-01-17T10:57:28.036Z,98022.40
2023-01-17T10:59:11.636Z,98017.20
2023-01-17T11:01:05.936Z,98019.40
2023-01-17T11:02:49.885Z,98017.40
2023-01-17T11:04:36.731Z,98018.40
2023-01-17T11:06:18.682Z,98017.40
2023-01-17T11:08:08.387Z,98006.60
2023-01-17T11:09:47.083Z,98004.80
2023-01-17T11:11:23.800Z,98006.40
2023-01-17T11:12:58.627Z,98008.40
2023-01-17T11:14:31.036Z,98002.40
2023-01-17T11:16:08.930Z,97998.00
2023-01-17T11:18:06.867Z,98002.00
2023-01-17T11:19:39.986Z,98006.00
2023-01-17T11:21:25.431Z,98005.60
2023-01-17T11:23:42.365Z,98003.00
2023-01-17T11:25:24.986Z,98008.20
2023-01-17T11:26:58.437Z,98007.00
2023-01-17T11:28:40.832Z,98004.40
2023-01-17T11:30:20.824Z,98008.40
2023-01-17T11:31:57.270Z,97999.60
2023-01-17T11:33:49.310Z,98005.20
2023-01-17T11:35:28.974Z,97999.40
2023-01-17T11:37:20.906Z,98001.80
2023-01-17T11:38:58.867Z,98002.00
2023-01-17T11:40:44.134Z,97996.60
2023-01-17T11:42:35.202Z,97996.40
2023-01-17T11:44:30.926Z,98000.40
2023-01-17T11:46:21.704Z,98002.80
2023-01-17T11:48:16.974Z,98002.80
2023-01-17T11:49:50.203Z,97996.20
2023-01-17T11:51:35.426Z,97999.00
2023-01-17T11:53:35.048Z,98002.20
2023-01-17T11:55:07.225Z,98002.00
2023-01-17T11:56:40.717Z,98002.00
2023-01-17T11:58:16.785Z,98001.00
2023-01-17T11:59:49.770Z,98001.00
2023-01-17T12:01:53.073Z,97997.40
2023-01-17T12:04:02.805Z,97993.00
2023-01-17T12:05:42.313Z,97993.20
2023-01-17T12:07:21.811Z,97996.80
2023-01-17T12:09:35.615Z,97998.20
2023-01-17T12:12:08.326Z,97990.20
2023-01-17T12:14:02.428Z,97989.20
2023-01-17T12:16:31.672Z,97983.00
2023-01-17T12:18:24.691Z,97981.20
2023-01-17T12:20:06.343Z,97981.40
2023-01-17T12:22:03.042Z,97978.00
2023-01-17T12:23:47.437Z,97977.40
2023-01-17T12:26:02.549Z,97975.40
2023-01-17T12:28:10.098Z,97975.20
2023-01-17T12:30:39.395Z,97979.60
2023-01-17T12:32:40.634Z,97969.20
2023-01-17T12:34:30.890Z,97963.40
2023-01-17T12:36:22.408Z,97963.80
2023-01-17T12:38:14.042Z,97964.40
2023-01-17T12:40:05.367Z,97958.00
2023-01-17T12:41:56.485Z,97967.00
2023-01-17T12:43:40.740Z,97967.20
2023-01-17T12:45:27.551Z,97963.80
2023-01-17T12:47:05.816Z,97959.80
2023-01-17T12:48:39.471Z,97960.20
2023-01-17T12:50:51.782Z,97961.20
2023-01-17T12:52:49.348Z,97961.80
2023-01-17T12:54:36.880Z,97963.40
2023-01-17T12:56:34.785Z,97970.60
2023-01-17T12:58:20.812Z,97970.80
2023-01-17T12:59:57.152Z,97968.60
2023-01-17T13:01:40.731Z,97969.60
2023-01-17T13:03:40.581Z,97964.60
2023-01-17T13:05:51.236Z,97961.60
2023-01-17T13:08:18.195Z,97958.60
2023-01-17T13:09:59.929Z,97966.80
2023-01-17T13:11:50.966Z,97969.20
2023-01-17T13:13:29.972Z,97969.60
2023-01-17T13:15:07.222Z,97973.00
2023-01-17T13:16:57.801Z,97972.20
2023-01-17T13:18:30.114Z,97967.00
2023-01-17T13:20:46.300Z,97971.00
2023-01-17T13:22:21.961Z,97974.60
2023-01-17T13:24:02.356Z,97977.80
2023-01-17T13:25:49.469Z,97973.20
2023-01-17T13:27:33.316Z,97970.00
2023-01-17T13:29:42.287Z,97977.80
2023-01-17T13:31:50.870Z,97976.40
2023-01-17T13:33:46.732Z,97970.20
2023-01-17T13:35:44.389Z,97974.20
2023-01-17T13:37:52.811Z,97971.40
2023-01-17T13:39:46.839Z,97973.80
2023-01-17T13:41:46.042Z,97976.20
2023-01-17T13:43:26.198Z,97974.80
2023-01-17T13:44:59.980Z,97977.60
2023-01-17T13:47:04.226Z,97980.60
2023-01-17T13:48:41.095Z,97983.00
2023-01-17T13:50:51.015Z,97981.80
2023-01-17T13:52:25.726Z,97978.40
2023-01-17T13:53:59.111Z,97981.40
2023-01-17T13:56:02.604Z,97979.00
2023-01-17T13:57:47.088Z,97980.00
2023-01-17T13:59:30.310Z,97976.40
2023-01-17T14:01:02.179Z,97982.80
2023-01-17T14:02:36.022Z,97981.20
2023-01-17T14:04:12.904Z,97981.40
2023-01-17T14:05:49.446Z,97981.20
2023-01-17T14:07:26.553Z,97982.00
2023-01-17T14:09:42.842Z,97983.00
2023-01-17T14:11:16.265Z,97984.80
2023-01-17T14:12:49.723Z,97987.00
2023-01-17T14:14:44.930Z,97986.00
2023-01-17T14:16:22.681Z,97983.80
2023-01-17T14:18:00.550Z,97985.20
2023-01-17T14:19:36.491Z,97983.00
2023-01-17T14:21:30.379Z,97982.80
2023-01-17T14:23:24.728Z,97977.20
2023-01-17T14:25:09.819Z,97984.00
2023-01-17T14:27:14.210Z,97985.80
2023-01-17T14:28:46.051Z,97986.00
2023-01-17T14:30:33.723Z,97988.40
2023-01-17T14:32:11.283Z,97988.20
2023-01-17T14:33:43.334Z,97993.00
2023-01-17T14:35:23.835Z,97992.80
2023-01-17T14:37:15.803Z,97991.40
2023-01-17T14:38:48.252Z,97990.00
2023-01-17T14:40:30.687Z,97985.60
2023-01-17T14:42:02.560Z,97985.20
2023-01-17T14:43:40.871Z,97987.80
2023-01-17T14:45:24.035Z,97989.00
2023-01-17T14:46:58.693Z,97991.60
2023-01-17T14:48:32.372Z,97986.80
2023-01-17T14:50:26.133Z,97994.20
2023-01-17T14:52:08.581Z,97992.80
2023-01-17T14:53:40.427Z,97993.20
2023-01-17T14:55:25.051Z,97996.00
2023-01-17T14:57:34.052Z,97993.60
2023-01-17T14:59:17.521Z,97995.00
2023-01-17T15:01:12.227Z,97988.00
2023-01-17T15:02:50.859Z,97990.20
2023-01-17T15:04:39.217Z,97994.80
2023-01-17T15:06:23.523Z,97993.80
2023-01-17T15:08:00.029Z,97995.40
2023-01-17T15:09:41.845Z,98001.00
2023-01-17T15:11:26.288Z,98000.60
2023-01-17T15:13:09.124Z,98002.80
2023-01-17T15:14:45.833Z,98009.80
2023-01-17T15:16:25.221Z,98011.80
2023-01-17T15:18:09.916Z,98009.00
2023-01-17T15:19:50.295Z,98014.60
2023-01-17T15:21:28.409Z,98015.20
2023-01-17T15:23:00.901Z,98017.60
2023-01-17T15:24:41.619Z,98020.60
2023-01-17T15:26:18.224Z,98021.20
2023-01-17T15:27:50.286Z,98024.80
2023-01-17T15:29:26.315Z,98023.60
2023-01-17T15:31:10.992Z,98029.20
2023-01-17T15:32:47.986Z,98024.20
2023-01-17T15:34:44.409Z,98025.00
2023-01-17T15:36:34.368Z,98015.60
2023-01-17T15:38:06.277Z,98014.80
2023-01-17T15:39:41.105Z,98017.00
2023-01-17T15:41:17.921Z,98018.40
2023-01-17T15:42:56.746Z,98014.80
2023-01-17T15:44:48.676Z,98015.20
2023-01-17T15:46:29.302Z,98016.00
2023-01-17T15:48:33.649Z,98012.20
2023-01-17T15:50:27.930Z,98012.60
2023-01-17T15:52:05.518Z,98007.20
2023-01-17T15:53:44.597Z,98014.00
2023-01-17T15:55:36.659Z,98014.40
2023-01-17T15:57:22.912Z,98019.60
2023-01-17T15:58:54.698Z,98021.20
2023-01-17T16:00:32.807Z,98021.00
2023-01-17T16:02:43.669Z,98023.60
2023-01-17T16:04:42.415Z,98020.40
2023-01-17T16:06:46.304Z,98026.60
2023-01-17T16:08:31.777Z,98028.40
2023-01-17T16:10:17.477Z,98029.00
2023-01-17T16:11:49.342Z,98026.20
2023-01-17T16:13:22.187Z,98028.20
2023-01-17T16:15:11.341Z,98025.80
2023-01-17T16:16:54.349Z,98028.40
2023-01-17T16:18:27.672Z,98032.20
2023-01-17T16:20:00.423Z,98031.60
2023-01-17T16:21:32.534Z,98038.40
2023-01-17T16:23:06.071Z,98040.40
2023-01-17T16:24:37.963Z,98038.60
2023-01-17T16:26:10.855Z,98046.00
2023-01-17T16:27:43.826Z,98042.60
2023-01-17T16:29:15.694Z,98043.40
2023-01-17T16:30:49.311Z,98040.40
2023-01-17T16:32:21.423Z,98046.40
2023-01-17T16:33:56.063Z,98041.60
2023-01-17T16:35:32.490Z,98041.40
2023-01-17T16:37:04.265Z,98045.60
2023-01-17T16:38:36.811Z,98049.40
2023-01-17T16:40:09.827Z,98044.80
2023-01-17T16:41:41.723Z,98047.00
2023-01-17T16:43:19.516Z,98049.60
2023-01-17T16:44:51.438Z,98049.80
2023-01-17T16:46:23.725Z,98054.60
2023-01-17T16:47:56.360Z,98059.20
2023-01-17T16:49:32.637Z,98060.80
2023-01-17T16:51:08.052Z,98067.80
2023-01-17T16:52:40.456Z,98069.00
2023-01-17T16:54:12.375Z,98066.20
2023-01-17T16:55:44.594Z,98070.40
2023-01-17T16:57:16.868Z,98068.20
2023-01-17T16:58:48.740Z,98068.40
2023-01-17T17:00:21.233Z,98069.40
2023-01-17T17:01:53.778Z,98073.40
2023-01-17T17:03:26.672Z,98073.20
2023-01-17T17:04:58.620Z,98075.80
2023-01-17T17:06:32.073Z,98073.60
2023-01-17T17:08:03.995Z,98079.00
2023-01-17T17:09:35.836Z,98075.20
2023-01-17T17:11:34.186Z,98081.60
2023-01-17T17:13:06.078Z,98082.40
2023-01-17T17:14:38.357Z,98085.80
2023-01-17T17:16:17.552Z,98088.00
2023-01-17T17:17:50.064Z,98084.40
2023-01-17T17:19:22.867Z,98085.20
2023-01-17T17:20:54.766Z,98083.20
2023-01-17T17:22:26.687Z,98085.80
2023-01-17T17:24:01.339Z,98078.00
2023-01-17T17:25:33.156Z,98084.00
2023-01-17T17:27:07.915Z,98082.60
2023-01-17T17:28:39.803Z,98088.00
2023-01-17T17:30:12.723Z,98089.40
2023-01-17T17:31:47.103Z,98092.20
2023-01-17T17:33:18.875Z,98093.00
2023-01-17T17:34:51.147Z,98095.20
2023-01-17T17:36:23.022Z,98092.80
2023-01-17T17:37:56.240Z,98088.60
2023-01-17T17:39:28.638Z,98086.00
2023-01-17T17:41:10.623Z,98090.40
2023-01-17T17:42:45.467Z,98094.00
2023-01-17T17:44:18.317Z,98092.20
2023-01-17T17:45:50.261Z,98094.00
2023-01-17T17:47:26.157Z,98095.20
2023-01-17T17:49:00.641Z,98098.00
2023-01-17T17:50:32.608Z,98094.00
2023-01-17T17:52:07.386Z,98094.00
2023-01-17T17:53:39.677Z,98101.40
2023-01-17T17:55:13.169Z,98102.40
2023-01-17T17:56:47.556Z,98100.60
2023-01-17T17:58:23.270Z,98101.80
2023-01-17T17:59:56.768Z,98099.40
2023-01-17T18:01:30.474Z,98100.80
2023-01-17T18:03:02.515Z,98101.60
2023-01-17T18:04:34.669Z,98103.40
2023-01-17T18:06:10.721Z,98099.60
2023-01-17T18:07:42.651Z,98105.40
2023-01-17T18:09:15.108Z,98102.60
2023-01-17T18:10:47.022Z,98106.00
2023-01-17T18:12:19.031Z,98105.00
2023-01-17T18:13:53.591Z,98108.00
2023-01-17T18:15:25.475Z,98112.60
2023-01-17T18:16:57.348Z,98111.40
2023-01-17T18:18:32.074Z,98115.80
2023-01-17T18:20:07.428Z,98119.80
2023-01-17T18:21:40.632Z,98120.20
2023-01-17T18:23:13.355Z,98120.60
2023-01-17T18:24:45.195Z,98119.40
2023-01-17T18:26:18.812Z,98120.80
2023-01-17T18:27:50.767Z,98124.60
2023-01-17T18:29:24.525Z,98127.20
2023-01-17T18:30:56.489Z,98131.80
2023-01-17T18:32:28.359Z,98129.80
2023-01-17T18:34:07.238Z,98132.80
2023-01-17T18:35:39.157Z,98131.80
2023-01-17T18:37:11.025Z,98137.20
2023-01-17T18:38:48.100Z,98139.20
2023-01-17T18:40:19.949Z,98140.60
2023-01-17T18:41:54.566Z,98139.80
2023-01-17T18:43:26.473Z,98143.20
2023-01-17T18:44:58.306Z,98144.40
2023-01-17T18:46:31.828Z,98146.20
2023-01-17T18:48:04.110Z,98147.40
2023-01-17T18:49:36.531Z,98151.80
2023-01-17T18:51:12.664Z,98156.40
2023-01-17T18:52:46.387Z,98157.80
2023-01-17T18:54:20.518Z,98163.00
2023-01-17T18:56:00.037Z,98163.80
2023-01-17T18:57:32.543Z,98169.80
2023-01-17T18:59:07.079Z,98175.60
2023-01-17T19:00:38.973Z,98173.40
2023-01-17T19:02:10.823Z,98177.80
2023-01-17T19:03:46.278Z,98177.40
2023-01-17T19:05:22.153Z,98180.00
2023-01-17T19:06:53.983Z,98178.20
2023-01-17T19:08:31.086Z,98174.40
2023-01-17T19:10:02.905Z,98170.40
2023-01-17T19:11:39.628Z,98176.40
2023-01-17T19:13:11.863Z,98173.00
2023-01-17T19:14:43.735Z,98172.20
2023-01-17T19:16:28.493Z,98175.20
2023-01-17T19:18:00.382Z,98180.20
2023-01-17T19:19:32.184Z,98181.80
2023-01-17T19:21:11.508Z,98185.40
2023-01-17T19:22:43.771Z,98186.20
2023-01-17T19:24:15.816Z,98185.80
2023-01-17T19:25:55.030Z,98186.60
2023-01-17T19:27:26.885Z,98185.60
2023-01-17T19:29:00.606Z,98185.60
2023-01-17T19:30:34.327Z,98186.60